sensor_id;sensor_type;location;lat;lon;timestamp;temperature;humidity
17697;DHT22;8967;47.984;7.842;2023-04-06T00:01:52;4.30;78.10
17697;DHT22;8967;47.984;7.842;2023-04-06T00:04:19;4.30;78.10
17697;DHT22;8967;47.984;7.842;2023-04-06T00:06:46;4.20;78.00
17697;DHT22;8967;47.984;7.842;2023-04-06T00:09:13;4.20;77.90
17697;DHT22;8967;47.984;7.842;2023-04-06T00:11:40;4.20;78.20
17697;DHT22;8967;47.984;7.842;2023-04-06T00:14:07;4.20;77.70
17697;DHT22;8967;47.984;7.842;2023-04-06T00:16:35;4.20;77.80
17697;DHT22;8967;47.984;7.842;2023-04-06T00:19:02;4.20;78.10
17697;DHT22;8967;47.984;7.842;2023-04-06T00:21:37;4.20;78.10
17697;DHT22;8967;47.984;7.842;2023-04-06T00:24:07;4.20;78.30
17697;DHT22;8967;47.984;7.842;2023-04-06T00:26:38;4.20;78.10
17697;DHT22;8967;47.984;7.842;2023-04-06T00:29:05;4.20;78.00
17697;DHT22;8967;47.984;7.842;2023-04-06T00:31:32;4.10;77.90
17697;DHT22;8967;47.984;7.842;2023-04-06T00:34:00;4.10;78.20
17697;DHT22;8967;47.984;7.842;2023-04-06T00:36:27;4.10;78.20
17697;DHT22;8967;47.984;7.842;2023-04-06T00:38:54;4.10;78.30
17697;DHT22;8967;47.984;7.842;2023-04-06T00:41:21;4.00;78.80
17697;DHT22;8967;47.984;7.842;2023-04-06T00:43:48;4.00;78.50
17697;DHT22;8967;47.984;7.842;2023-04-06T00:46:15;4.00;78.80
17697;DHT22;8967;47.984;7.842;2023-04-06T00:48:42;4.00;78.80
17697;DHT22;8967;47.984;7.842;2023-04-06T00:51:12;3.90;78.90
17697;DHT22;8967;47.984;7.842;2023-04-06T00:53:39;3.90;78.80
17697;DHT22;8967;47.984;7.842;2023-04-06T00:56:08;3.90;78.90
17697;DHT22;8967;47.984;7.842;2023-04-06T00:58:46;3.90;79.20
17697;DHT22;8967;47.984;7.842;2023-04-06T01:01:13;3.80;79.30
17697;DHT22;8967;47.984;7.842;2023-04-06T01:03:43;3.80;79.60
17697;DHT22;8967;47.984;7.842;2023-04-06T01:06:19;3.80;79.90
17697;DHT22;8967;47.984;7.842;2023-04-06T01:09:00;3.80;80.10
17697;DHT22;8967;47.984;7.842;2023-04-06T01:11:28;3.80;80.30
17697;DHT22;8967;47.984;7.842;2023-04-06T01:13:56;3.80;80.40
17697;DHT22;8967;47.984;7.842;2023-04-06T01:16:31;3.80;80.30
17697;DHT22;8967;47.984;7.842;2023-04-06T01:19:09;3.80;80.00
17697;DHT22;8967;47.984;7.842;2023-04-06T01:21:40;3.70;79.70
17697;DHT22;8967;47.984;7.842;2023-04-06T01:24:24;3.70;79.80
17697;DHT22;8967;47.984;7.842;2023-04-06T01:27:17;3.70;80.00
17697;DHT22;8967;47.984;7.842;2023-04-06T01:30:22;3.70;79.90
17697;DHT22;8967;47.984;7.842;2023-04-06T01:32:53;3.70;79.90
17697;DHT22;8967;47.984;7.842;2023-04-06T01:35:35;3.70;79.80
17697;DHT22;8967;47.984;7.842;2023-04-06T01:38:14;3.70;79.80
17697;DHT22;8967;47.984;7.842;2023-04-06T01:40:44;3.70;80.10
17697;DHT22;8967;47.984;7.842;2023-04-06T01:43:17;3.70;80.40
17697;DHT22;8967;47.984;7.842;2023-04-06T01:46:15;3.70;80.70
17697;DHT22;8967;47.984;7.842;2023-04-06T01:48:44;3.70;80.80
17697;DHT22;8967;47.984;7.842;2023-04-06T01:51:34;3.70;80.90
17697;DHT22;8967;47.984;7.842;2023-04-06T01:54:03;3.60;80.80
17697;DHT22;8967;47.984;7.842;2023-04-06T01:56:44;3.60;80.90
17697;DHT22;8967;47.984;7.842;2023-04-06T01:59:27;3.60;81.20
17697;DHT22;8967;47.984;7.842;2023-04-06T02:02:01;3.50;81.40
17697;DHT22;8967;47.984;7.842;2023-04-06T02:04:30;3.50;81.50
17697;DHT22;8967;47.984;7.842;2023-04-06T02:07:10;3.50;81.70
17697;DHT22;8967;47.984;7.842;2023-04-06T02:09:37;3.50;81.80
17697;DHT22;8967;47.984;7.842;2023-04-06T02:12:09;3.50;81.80
17697;DHT22;8967;47.984;7.842;2023-04-06T02:14:36;3.50;82.00
17697;DHT22;8967;47.984;7.842;2023-04-06T02:17:03;3.40;82.00
17697;DHT22;8967;47.984;7.842;2023-04-06T02:19:30;3.40;82.50
17697;DHT22;8967;47.984;7.842;2023-04-06T02:21:57;3.40;82.80
17697;DHT22;8967;47.984;7.842;2023-04-06T02:24:27;3.30;82.90
17697;DHT22;8967;47.984;7.842;2023-04-06T02:26:54;3.30;83.30
17697;DHT22;8967;47.984;7.842;2023-04-06T02:29:23;3.30;83.60
17697;DHT22;8967;47.984;7.842;2023-04-06T02:31:51;3.30;83.70
17697;DHT22;8967;47.984;7.842;2023-04-06T02:34:19;3.20;83.80
17697;DHT22;8967;47.984;7.842;2023-04-06T02:36:53;3.20;84.00
17697;DHT22;8967;47.984;7.842;2023-04-06T02:39:22;3.20;84.00
17697;DHT22;8967;47.984;7.842;2023-04-06T02:41:50;3.20;83.90
17697;DHT22;8967;47.984;7.842;2023-04-06T02:44:23;3.20;84.10
17697;DHT22;8967;47.984;7.842;2023-04-06T02:46:50;3.20;84.10
17697;DHT22;8967;47.984;7.842;2023-04-06T02:49:17;3.20;84.40
17697;DHT22;8967;47.984;7.842;2023-04-06T02:51:44;3.20;84.40
17697;DHT22;8967;47.984;7.842;2023-04-06T02:54:19;3.20;84.50
17697;DHT22;8967;47.984;7.842;2023-04-06T02:56:46;3.20;84.20
17697;DHT22;8967;47.984;7.842;2023-04-06T02:59:16;3.10;84.00
17697;DHT22;8967;47.984;7.842;2023-04-06T03:01:53;3.10;84.10
17697;DHT22;8967;47.984;7.842;2023-04-06T03:04:23;3.10;84.10
17697;DHT22;8967;47.984;7.842;2023-04-06T03:06:55;3.10;84.10
17697;DHT22;8967;47.984;7.842;2023-04-06T03:09:32;3.10;84.10
17697;DHT22;8967;47.984;7.842;2023-04-06T03:12:02;3.10;84.40
17697;DHT22;8967;47.984;7.842;2023-04-06T03:14:34;3.10;84.30
17697;DHT22;8967;47.984;7.842;2023-04-06T03:17:04;3.10;83.70
17697;DHT22;8967;47.984;7.842;2023-04-06T03:19:34;3.10;83.80
17697;DHT22;8967;47.984;7.842;2023-04-06T03:22:02;3.10;84.00
17697;DHT22;8967;47.984;7.842;2023-04-06T03:24:29;3.10;83.90
17697;DHT22;8967;47.984;7.842;2023-04-06T03:26:56;3.10;84.10
17697;DHT22;8967;47.984;7.842;2023-04-06T03:29:27;3.10;83.90
17697;DHT22;8967;47.984;7.842;2023-04-06T03:31:57;3.10;84.10
17697;DHT22;8967;47.984;7.842;2023-04-06T03:34:36;3.10;84.20
17697;DHT22;8967;47.984;7.842;2023-04-06T03:37:03;3.00;84.30
17697;DHT22;8967;47.984;7.842;2023-04-06T03:39:31;3.00;84.40
17697;DHT22;8967;47.984;7.842;2023-04-06T03:41:59;3.00;84.40
17697;DHT22;8967;47.984;7.842;2023-04-06T03:44:38;3.00;84.10
17697;DHT22;8967;47.984;7.842;2023-04-06T03:47:06;3.00;84.20
17697;DHT22;8967;47.984;7.842;2023-04-06T03:49:36;3.00;84.20
17697;DHT22;8967;47.984;7.842;2023-04-06T03:52:06;3.00;84.10
17697;DHT22;8967;47.984;7.842;2023-04-06T03:54:33;3.00;84.10
17697;DHT22;8967;47.984;7.842;2023-04-06T03:57:00;3.00;84.10
17697;DHT22;8967;47.984;7.842;2023-04-06T03:59:28;3.00;84.00
17697;DHT22;8967;47.984;7.842;2023-04-06T04:01:55;3.00;83.90
17697;DHT22;8967;47.984;7.842;2023-04-06T04:04:27;3.00;84.20
17697;DHT22;8967;47.984;7.842;2023-04-06T04:06:55;3.00;84.40
17697;DHT22;8967;47.984;7.842;2023-04-06T04:09:24;3.00;84.60
17697;DHT22;8967;47.984;7.842;2023-04-06T04:11:55;3.00;84.90
17697;DHT22;8967;47.984;7.842;2023-04-06T04:14:23;3.00;85.00
17697;DHT22;8967;47.984;7.842;2023-04-06T04:16:53;3.00;85.30
17697;DHT22;8967;47.984;7.842;2023-04-06T04:19:20;3.00;85.50
17697;DHT22;8967;47.984;7.842;2023-04-06T04:21:47;3.00;85.40
17697;DHT22;8967;47.984;7.842;2023-04-06T04:24:20;2.90;85.30
17697;DHT22;8967;47.984;7.842;2023-04-06T04:26:48;2.90;85.40
17697;DHT22;8967;47.984;7.842;2023-04-06T04:29:15;2.90;85.40
17697;DHT22;8967;47.984;7.842;2023-04-06T04:31:43;2.80;85.50
17697;DHT22;8967;47.984;7.842;2023-04-06T04:34:15;2.80;85.70
17697;DHT22;8967;47.984;7.842;2023-04-06T04:36:45;2.80;86.50
17697;DHT22;8967;47.984;7.842;2023-04-06T04:39:20;2.70;86.60
17697;DHT22;8967;47.984;7.842;2023-04-06T04:41:58;2.70;86.70
17697;DHT22;8967;47.984;7.842;2023-04-06T04:44:26;2.60;86.80
17697;DHT22;8967;47.984;7.842;2023-04-06T04:46:53;2.60;87.40
17697;DHT22;8967;47.984;7.842;2023-04-06T04:49:26;2.60;87.20
17697;DHT22;8967;47.984;7.842;2023-04-06T04:51:54;2.60;87.20
17697;DHT22;8967;47.984;7.842;2023-04-06T04:54:33;2.50;87.20
17697;DHT22;8967;47.984;7.842;2023-04-06T04:57:01;2.50;87.40
17697;DHT22;8967;47.984;7.842;2023-04-06T04:59:37;2.50;87.70
17697;DHT22;8967;47.984;7.842;2023-04-06T05:02:13;2.50;87.90
17697;DHT22;8967;47.984;7.842;2023-04-06T05:04:50;2.50;88.20
17697;DHT22;8967;47.984;7.842;2023-04-06T05:07:21;2.50;88.30
17697;DHT22;8967;47.984;7.842;2023-04-06T05:09:51;2.50;88.40
17697;DHT22;8967;47.984;7.842;2023-04-06T05:12:23;2.50;88.10
17697;DHT22;8967;47.984;7.842;2023-04-06T05:15:01;2.50;88.20
17697;DHT22;8967;47.984;7.842;2023-04-06T05:17:28;2.50;88.50
17697;DHT22;8967;47.984;7.842;2023-04-06T05:19:58;2.50;88.70
17697;DHT22;8967;47.984;7.842;2023-04-06T05:22:30;2.60;89.00
17697;DHT22;8967;47.984;7.842;2023-04-06T05:25:05;2.60;89.10
17697;DHT22;8967;47.984;7.842;2023-04-06T05:27:32;2.60;89.20
17697;DHT22;8967;47.984;7.842;2023-04-06T05:30:06;2.70;89.00
17697;DHT22;8967;47.984;7.842;2023-04-06T05:32:39;2.70;88.80
17697;DHT22;8967;47.984;7.842;2023-04-06T05:35:06;2.70;88.40
17697;DHT22;8967;47.984;7.842;2023-04-06T05:37:37;2.70;88.30
17697;DHT22;8967;47.984;7.842;2023-04-06T05:40:09;2.70;88.20
17697;DHT22;8967;47.984;7.842;2023-04-06T05:42:39;2.70;87.80
17697;DHT22;8967;47.984;7.842;2023-04-06T05:45:07;2.70;87.80
17697;DHT22;8967;47.984;7.842;2023-04-06T05:47:37;2.80;87.80
17697;DHT22;8967;47.984;7.842;2023-04-06T05:50:16;2.80;88.00
17697;DHT22;8967;47.984;7.842;2023-04-06T05:52:43;2.80;87.90
17697;DHT22;8967;47.984;7.842;2023-04-06T05:55:20;2.80;87.70
17697;DHT22;8967;47.984;7.842;2023-04-06T05:57:54;2.80;87.80
17697;DHT22;8967;47.984;7.842;2023-04-06T06:00:21;2.90;87.50
17697;DHT22;8967;47.984;7.842;2023-04-06T06:03:03;2.90;87.40
17697;DHT22;8967;47.984;7.842;2023-04-06T06:05:32;2.90;87.30
17697;DHT22;8967;47.984;7.842;2023-04-06T06:08:16;3.00;87.30
17697;DHT22;8967;47.984;7.842;2023-04-06T06:10:45;3.00;86.70
17697;DHT22;8967;47.984;7.842;2023-04-06T06:13:18;3.00;86.40
17697;DHT22;8967;47.984;7.842;2023-04-06T06:15:45;3.10;86.40
17697;DHT22;8967;47.984;7.842;2023-04-06T06:18:13;3.20;85.60
17697;DHT22;8967;47.984;7.842;2023-04-06T06:20:40;3.20;85.00
17697;DHT22;8967;47.984;7.842;2023-04-06T06:23:07;3.30;84.90
17697;DHT22;8967;47.984;7.842;2023-04-06T06:25:35;3.30;84.70
17697;DHT22;8967;47.984;7.842;2023-04-06T06:28:10;3.30;84.50
17697;DHT22;8967;47.984;7.842;2023-04-06T06:30:46;3.40;84.30
17697;DHT22;8967;47.984;7.842;2023-04-06T06:33:18;3.50;84.30
17697;DHT22;8967;47.984;7.842;2023-04-06T06:35:45;3.50;84.10
17697;DHT22;8967;47.984;7.842;2023-04-06T06:38:18;3.60;83.90
17697;DHT22;8967;47.984;7.842;2023-04-06T06:40:46;3.60;83.80
17697;DHT22;8967;47.984;7.842;2023-04-06T06:43:16;3.60;83.80
17697;DHT22;8967;47.984;7.842;2023-04-06T06:45:50;3.70;83.70
17697;DHT22;8967;47.984;7.842;2023-04-06T06:48:20;3.80;83.20
17697;DHT22;8967;47.984;7.842;2023-04-06T06:50:48;3.90;83.00
17697;DHT22;8967;47.984;7.842;2023-04-06T06:53:15;3.90;82.80
17697;DHT22;8967;47.984;7.842;2023-04-06T06:55:42;4.00;82.40
17697;DHT22;8967;47.984;7.842;2023-04-06T06:58:10;4.10;82.40
17697;DHT22;8967;47.984;7.842;2023-04-06T07:00:38;4.10;82.30
17697;DHT22;8967;47.984;7.842;2023-04-06T07:03:06;4.10;82.40
17697;DHT22;8967;47.984;7.842;2023-04-06T07:05:36;4.20;82.00
17697;DHT22;8967;47.984;7.842;2023-04-06T07:08:05;4.40;81.60
17697;DHT22;8967;47.984;7.842;2023-04-06T07:10:35;4.40;81.30
17697;DHT22;8967;47.984;7.842;2023-04-06T07:13:02;4.50;81.20
17697;DHT22;8967;47.984;7.842;2023-04-06T07:15:29;4.50;81.10
17697;DHT22;8967;47.984;7.842;2023-04-06T07:17:58;4.50;81.30
17697;DHT22;8967;47.984;7.842;2023-04-06T07:20:25;4.60;81.10
17697;DHT22;8967;47.984;7.842;2023-04-06T07:22:54;4.70;80.50
17697;DHT22;8967;47.984;7.842;2023-04-06T07:25:21;4.80;80.10
17697;DHT22;8967;47.984;7.842;2023-04-06T07:27:48;4.90;79.70
17697;DHT22;8967;47.984;7.842;2023-04-06T07:30:15;5.00;79.60
17697;DHT22;8967;47.984;7.842;2023-04-06T07:32:43;5.00;79.50
17697;DHT22;8967;47.984;7.842;2023-04-06T07:35:12;5.10;79.20
17697;DHT22;8967;47.984;7.842;2023-04-06T07:37:41;5.20;79.20
17697;DHT22;8967;47.984;7.842;2023-04-06T07:40:09;5.20;79.00
17697;DHT22;8967;47.984;7.842;2023-04-06T07:42:37;5.30;78.70
17697;DHT22;8967;47.984;7.842;2023-04-06T07:45:06;5.40;78.70
17697;DHT22;8967;47.984;7.842;2023-04-06T07:47:36;5.50;78.50
17697;DHT22;8967;47.984;7.842;2023-04-06T07:50:04;5.50;77.80
17697;DHT22;8967;47.984;7.842;2023-04-06T07:52:33;5.60;77.60
17697;DHT22;8967;47.984;7.842;2023-04-06T07:55:00;5.60;77.20
17697;DHT22;8967;47.984;7.842;2023-04-06T07:57:30;5.70;76.90
17697;DHT22;8967;47.984;7.842;2023-04-06T07:59:57;5.70;76.50
17697;DHT22;8967;47.984;7.842;2023-04-06T08:02:27;5.80;76.00
17697;DHT22;8967;47.984;7.842;2023-04-06T08:04:55;5.90;75.60
17697;DHT22;8967;47.984;7.842;2023-04-06T08:07:24;5.90;74.90
17697;DHT22;8967;47.984;7.842;2023-04-06T08:09:53;6.00;74.50
17697;DHT22;8967;47.984;7.842;2023-04-06T08:12:20;6.00;74.10
17697;DHT22;8967;47.984;7.842;2023-04-06T08:14:48;6.10;74.10
17697;DHT22;8967;47.984;7.842;2023-04-06T08:17:15;6.20;74.00
17697;DHT22;8967;47.984;7.842;2023-04-06T08:19:42;6.20;73.70
17697;DHT22;8967;47.984;7.842;2023-04-06T08:22:09;6.30;73.50
17697;DHT22;8967;47.984;7.842;2023-04-06T08:24:36;6.40;73.50
17697;DHT22;8967;47.984;7.842;2023-04-06T08:27:05;6.50;73.70
17697;DHT22;8967;47.984;7.842;2023-04-06T08:29:32;6.50;73.10
17697;DHT22;8967;47.984;7.842;2023-04-06T08:31:59;6.60;73.10
17697;DHT22;8967;47.984;7.842;2023-04-06T08:34:28;6.70;73.30
17697;DHT22;8967;47.984;7.842;2023-04-06T08:36:57;6.80;73.90
17697;DHT22;8967;47.984;7.842;2023-04-06T08:39:25;6.90;73.30
17697;DHT22;8967;47.984;7.842;2023-04-06T08:41:56;7.00;72.80
17697;DHT22;8967;47.984;7.842;2023-04-06T08:44:30;7.00;73.10
17697;DHT22;8967;47.984;7.842;2023-04-06T08:46:59;7.10;72.90
17697;DHT22;8967;47.984;7.842;2023-04-06T08:49:26;7.20;72.90
17697;DHT22;8967;47.984;7.842;2023-04-06T08:51:54;7.30;72.50
17697;DHT22;8967;47.984;7.842;2023-04-06T08:54:22;7.40;72.40
17697;DHT22;8967;47.984;7.842;2023-04-06T08:56:50;7.50;72.70
17697;DHT22;8967;47.984;7.842;2023-04-06T08:59:18;7.60;72.20
17697;DHT22;8967;47.984;7.842;2023-04-06T09:01:46;7.70;72.10
17697;DHT22;8967;47.984;7.842;2023-04-06T09:04:22;7.80;71.70
17697;DHT22;8967;47.984;7.842;2023-04-06T09:06:49;7.80;71.20
17697;DHT22;8967;47.984;7.842;2023-04-06T09:09:28;7.90;70.90
17697;DHT22;8967;47.984;7.842;2023-04-06T09:11:55;7.90;70.90
17697;DHT22;8967;47.984;7.842;2023-04-06T09:14:38;8.00;71.60
17697;DHT22;8967;47.984;7.842;2023-04-06T09:17:07;8.10;71.70
17697;DHT22;8967;47.984;7.842;2023-04-06T09:19:47;8.20;71.70
17697;DHT22;8967;47.984;7.842;2023-04-06T09:22:14;8.30;71.30
17697;DHT22;8967;47.984;7.842;2023-04-06T09:24:45;8.40;71.40
17697;DHT22;8967;47.984;7.842;2023-04-06T09:27:12;8.50;70.80
17697;DHT22;8967;47.984;7.842;2023-04-06T09:29:40;8.50;70.90
17697;DHT22;8967;47.984;7.842;2023-04-06T09:32:09;8.60;71.10
17697;DHT22;8967;47.984;7.842;2023-04-06T09:34:38;8.70;70.60
17697;DHT22;8967;47.984;7.842;2023-04-06T09:37:15;8.80;70.10
17697;DHT22;8967;47.984;7.842;2023-04-06T09:39:42;8.90;70.40
17697;DHT22;8967;47.984;7.842;2023-04-06T09:42:09;9.00;70.00
17697;DHT22;8967;47.984;7.842;2023-04-06T09:44:36;9.00;69.20
17697;DHT22;8967;47.984;7.842;2023-04-06T09:47:08;9.20;70.00
17697;DHT22;8967;47.984;7.842;2023-04-06T09:49:38;9.30;69.40
17697;DHT22;8967;47.984;7.842;2023-04-06T09:52:08;9.40;68.20
17697;DHT22;8967;47.984;7.842;2023-04-06T09:54:38;9.50;66.90
17697;DHT22;8967;47.984;7.842;2023-04-06T09:57:08;9.60;66.40
17697;DHT22;8967;47.984;7.842;2023-04-06T09:59:47;9.70;65.90
17697;DHT22;8967;47.984;7.842;2023-04-06T10:02:32;9.80;65.20
17697;DHT22;8967;47.984;7.842;2023-04-06T10:05:07;9.90;65.50
17697;DHT22;8967;47.984;7.842;2023-04-06T10:07:40;10.00;65.50
17697;DHT22;8967;47.984;7.842;2023-04-06T10:10:08;10.00;65.00
17697;DHT22;8967;47.984;7.842;2023-04-06T10:12:43;10.20;65.00
17697;DHT22;8967;47.984;7.842;2023-04-06T10:15:11;10.30;64.90
17697;DHT22;8967;47.984;7.842;2023-04-06T10:17:41;10.40;64.40
17697;DHT22;8967;47.984;7.842;2023-04-06T10:20:14;10.40;64.00
17697;DHT22;8967;47.984;7.842;2023-04-06T10:22:45;10.50;64.20
17697;DHT22;8967;47.984;7.842;2023-04-06T10:25:27;10.60;63.40
17697;DHT22;8967;47.984;7.842;2023-04-06T10:30:28;10.70;62.80
17697;DHT22;8967;47.984;7.842;2023-04-06T10:32:57;10.80;62.40
17697;DHT22;8967;47.984;7.842;2023-04-06T10:35:24;10.80;61.90
17697;DHT22;8967;47.984;7.842;2023-04-06T10:37:52;10.90;62.10
17697;DHT22;8967;47.984;7.842;2023-04-06T10:40:22;11.00;61.80
17697;DHT22;8967;47.984;7.842;2023-04-06T10:42:50;11.00;61.00
17697;DHT22;8967;47.984;7.842;2023-04-06T10:45:31;11.10;60.50
17697;DHT22;8967;47.984;7.842;2023-04-06T10:48:12;11.10;59.60
17697;DHT22;8967;47.984;7.842;2023-04-06T10:50:39;11.10;59.00
17697;DHT22;8967;47.984;7.842;2023-04-06T10:53:06;11.10;59.40
17697;DHT22;8967;47.984;7.842;2023-04-06T10:55:42;11.10;59.50
17697;DHT22;8967;47.984;7.842;2023-04-06T10:58:10;11.10;59.30
17697;DHT22;8967;47.984;7.842;2023-04-06T11:00:44;11.20;58.80
17697;DHT22;8967;47.984;7.842;2023-04-06T11:03:12;11.20;58.20
17697;DHT22;8967;47.984;7.842;2023-04-06T11:05:43;11.30;58.20
17697;DHT22;8967;47.984;7.842;2023-04-06T11:08:22;11.30;58.60
17697;DHT22;8967;47.984;7.842;2023-04-06T11:11:04;11.40;58.30
17697;DHT22;8967;47.984;7.842;2023-04-06T11:13:37;11.40;58.50
17697;DHT22;8967;47.984;7.842;2023-04-06T11:16:12;11.50;58.40
17697;DHT22;8967;47.984;7.842;2023-04-06T11:18:54;11.50;57.90
17697;DHT22;8967;47.984;7.842;2023-04-06T11:21:33;11.50;58.50
17697;DHT22;8967;47.984;7.842;2023-04-06T11:24:07;11.60;58.20
17697;DHT22;8967;47.984;7.842;2023-04-06T11:26:42;11.70;57.80
17697;DHT22;8967;47.984;7.842;2023-04-06T11:29:10;11.80;56.90
17697;DHT22;8967;47.984;7.842;2023-04-06T11:31:42;11.80;56.30
17697;DHT22;8967;47.984;7.842;2023-04-06T11:34:15;11.80;55.40
17697;DHT22;8967;47.984;7.842;2023-04-06T11:36:55;11.80;54.80
17697;DHT22;8967;47.984;7.842;2023-04-06T11:39:24;11.80;54.60
17697;DHT22;8967;47.984;7.842;2023-04-06T11:41:58;11.80;54.70
17697;DHT22;8967;47.984;7.842;2023-04-06T11:44:31;11.80;54.50
17697;DHT22;8967;47.984;7.842;2023-04-06T11:47:06;11.90;55.00
17697;DHT22;8967;47.984;7.842;2023-04-06T11:49:37;12.00;55.20
17697;DHT22;8967;47.984;7.842;2023-04-06T11:52:14;12.10;55.40
17697;DHT22;8967;47.984;7.842;2023-04-06T11:54:42;12.20;54.20
17697;DHT22;8967;47.984;7.842;2023-04-06T11:57:09;12.20;53.80
17697;DHT22;8967;47.984;7.842;2023-04-06T11:59:36;12.30;54.20
17697;DHT22;8967;47.984;7.842;2023-04-06T12:02:03;12.30;53.90
17697;DHT22;8967;47.984;7.842;2023-04-06T12:04:30;12.40;53.60
17697;DHT22;8967;47.984;7.842;2023-04-06T12:06:59;12.40;53.00
17697;DHT22;8967;47.984;7.842;2023-04-06T12:09:28;12.40;53.00
17697;DHT22;8967;47.984;7.842;2023-04-06T12:11:56;12.50;53.20
17697;DHT22;8967;47.984;7.842;2023-04-06T12:14:23;12.60;53.10
17697;DHT22;8967;47.984;7.842;2023-04-06T12:16:50;12.60;53.00
17697;DHT22;8967;47.984;7.842;2023-04-06T12:19:21;12.60;53.40
17697;DHT22;8967;47.984;7.842;2023-04-06T12:21:51;12.60;53.00
17697;DHT22;8967;47.984;7.842;2023-04-06T12:24:25;12.70;53.00
17697;DHT22;8967;47.984;7.842;2023-04-06T12:26:54;12.70;53.00
17697;DHT22;8967;47.984;7.842;2023-04-06T12:29:23;12.70;52.70
17697;DHT22;8967;47.984;7.842;2023-04-06T12:31:51;12.80;52.80
17697;DHT22;8967;47.984;7.842;2023-04-06T12:34:18;12.80;53.00
17697;DHT22;8967;47.984;7.842;2023-04-06T12:36:46;12.80;52.70
17697;DHT22;8967;47.984;7.842;2023-04-06T12:39:13;12.80;52.50
17697;DHT22;8967;47.984;7.842;2023-04-06T12:41:41;12.80;53.20
17697;DHT22;8967;47.984;7.842;2023-04-06T12:44:08;12.80;53.10
17697;DHT22;8967;47.984;7.842;2023-04-06T12:46:35;12.80;52.90
17697;DHT22;8967;47.984;7.842;2023-04-06T12:49:02;12.80;53.70
17697;DHT22;8967;47.984;7.842;2023-04-06T12:51:29;12.90;53.50
17697;DHT22;8967;47.984;7.842;2023-04-06T12:53:57;12.90;53.30
17697;DHT22;8967;47.984;7.842;2023-04-06T12:56:25;12.90;53.30
17697;DHT22;8967;47.984;7.842;2023-04-06T12:58:54;13.00;53.50
17697;DHT22;8967;47.984;7.842;2023-04-06T13:01:22;13.00;53.20
17697;DHT22;8967;47.984;7.842;2023-04-06T13:03:49;13.00;52.60
17697;DHT22;8967;47.984;7.842;2023-04-06T13:06:17;13.00;52.60
17697;DHT22;8967;47.984;7.842;2023-04-06T13:08:44;13.00;52.20
17697;DHT22;8967;47.984;7.842;2023-04-06T13:11:12;13.00;52.60
17697;DHT22;8967;47.984;7.842;2023-04-06T13:13:40;13.00;52.90
17697;DHT22;8967;47.984;7.842;2023-04-06T13:16:08;13.10;52.60
17697;DHT22;8967;47.984;7.842;2023-04-06T13:18:36;13.10;52.20
17697;DHT22;8967;47.984;7.842;2023-04-06T13:21:04;13.10;52.30
17697;DHT22;8967;47.984;7.842;2023-04-06T13:23:31;13.10;52.00
17697;DHT22;8967;47.984;7.842;2023-04-06T13:25:59;13.10;52.30
17697;DHT22;8967;47.984;7.842;2023-04-06T13:28:27;13.20;52.70
17697;DHT22;8967;47.984;7.842;2023-04-06T13:30:58;13.20;52.30
17697;DHT22;8967;47.984;7.842;2023-04-06T13:33:27;13.20;52.60
17697;DHT22;8967;47.984;7.842;2023-04-06T13:35:55;13.20;52.80
17697;DHT22;8967;47.984;7.842;2023-04-06T13:38:22;13.20;52.60
17697;DHT22;8967;47.984;7.842;2023-04-06T13:40:50;13.20;52.20
17697;DHT22;8967;47.984;7.842;2023-04-06T13:43:32;13.20;52.50
17697;DHT22;8967;47.984;7.842;2023-04-06T13:45:59;13.30;52.20
17697;DHT22;8967;47.984;7.842;2023-04-06T13:48:32;13.30;52.00
17697;DHT22;8967;47.984;7.842;2023-04-06T13:51:08;13.30;52.20
17697;DHT22;8967;47.984;7.842;2023-04-06T13:53:39;13.30;52.00
17697;DHT22;8967;47.984;7.842;2023-04-06T13:56:07;13.30;52.20
17697;DHT22;8967;47.984;7.842;2023-04-06T13:58:34;13.30;52.20
17697;DHT22;8967;47.984;7.842;2023-04-06T14:01:03;13.30;51.90
17697;DHT22;8967;47.984;7.842;2023-04-06T14:03:33;13.40;52.60
17697;DHT22;8967;47.984;7.842;2023-04-06T14:06:00;13.40;52.10
17697;DHT22;8967;47.984;7.842;2023-04-06T14:08:27;13.40;52.00
17697;DHT22;8967;47.984;7.842;2023-04-06T14:10:53;13.40;52.00
17697;DHT22;8967;47.984;7.842;2023-04-06T14:13:20;13.40;52.00
17697;DHT22;8967;47.984;7.842;2023-04-06T14:15:53;13.40;51.90
17697;DHT22;8967;47.984;7.842;2023-04-06T14:18:20;13.30;51.80
17697;DHT22;8967;47.984;7.842;2023-04-06T14:20:58;13.30;51.80
17697;DHT22;8967;47.984;7.842;2023-04-06T14:23:28;13.30;51.70
17697;DHT22;8967;47.984;7.842;2023-04-06T14:26:07;13.30;52.10
17697;DHT22;8967;47.984;7.842;2023-04-06T14:28:35;13.30;52.20
17697;DHT22;8967;47.984;7.842;2023-04-06T14:31:09;13.30;52.20
17697;DHT22;8967;47.984;7.842;2023-04-06T14:33:36;13.30;52.60
17697;DHT22;8967;47.984;7.842;2023-04-06T14:36:07;13.30;52.80
17697;DHT22;8967;47.984;7.842;2023-04-06T14:38:34;13.30;52.60
17697;DHT22;8967;47.984;7.842;2023-04-06T14:41:01;13.30;52.50
17697;DHT22;8967;47.984;7.842;2023-04-06T14:43:30;13.30;53.10
17697;DHT22;8967;47.984;7.842;2023-04-06T14:46:00;13.30;52.80
17697;DHT22;8967;47.984;7.842;2023-04-06T14:48:27;13.20;52.80
17697;DHT22;8967;47.984;7.842;2023-04-06T14:50:56;13.20;53.00
17697;DHT22;8967;47.984;7.842;2023-04-06T14:53:24;13.20;53.30
17697;DHT22;8967;47.984;7.842;2023-04-06T14:55:51;13.20;53.40
17697;DHT22;8967;47.984;7.842;2023-04-06T14:58:19;13.20;52.80
17697;DHT22;8967;47.984;7.842;2023-04-06T15:00:46;13.20;52.70
17697;DHT22;8967;47.984;7.842;2023-04-06T15:03:13;13.20;52.60
17697;DHT22;8967;47.984;7.842;2023-04-06T15:05:44;13.20;53.20
17697;DHT22;8967;47.984;7.842;2023-04-06T15:08:10;13.20;52.80
17697;DHT22;8967;47.984;7.842;2023-04-06T15:10:43;13.20;52.90
17697;DHT22;8967;47.984;7.842;2023-04-06T15:13:10;13.20;53.00
17697;DHT22;8967;47.984;7.842;2023-04-06T15:15:37;13.20;53.20
17697;DHT22;8967;47.984;7.842;2023-04-06T15:18:04;13.20;53.30
17697;DHT22;8967;47.984;7.842;2023-04-06T15:20:32;13.20;53.90
17697;DHT22;8967;47.984;7.842;2023-04-06T15:23:04;13.20;54.40
17697;DHT22;8967;47.984;7.842;2023-04-06T15:25:31;13.20;54.10
17697;DHT22;8967;47.984;7.842;2023-04-06T15:28:01;13.20;55.10
17697;DHT22;8967;47.984;7.842;2023-04-06T15:30:28;13.20;54.80
17697;DHT22;8967;47.984;7.842;2023-04-06T15:32:56;13.20;54.70
17697;DHT22;8967;47.984;7.842;2023-04-06T15:35:24;13.10;54.90
17697;DHT22;8967;47.984;7.842;2023-04-06T15:37:53;13.10;54.80
17697;DHT22;8967;47.984;7.842;2023-04-06T15:40:23;13.10;55.30
17697;DHT22;8967;47.984;7.842;2023-04-06T15:42:50;13.10;55.20
17697;DHT22;8967;47.984;7.842;2023-04-06T15:45:18;13.00;55.10
17697;DHT22;8967;47.984;7.842;2023-04-06T15:47:45;13.00;55.50
17697;DHT22;8967;47.984;7.842;2023-04-06T15:50:14;12.90;55.60
17697;DHT22;8967;47.984;7.842;2023-04-06T15:52:44;12.90;55.60
17697;DHT22;8967;47.984;7.842;2023-04-06T15:55:11;12.80;56.70
17697;DHT22;8967;47.984;7.842;2023-04-06T15:57:40;12.80;56.70
17697;DHT22;8967;47.984;7.842;2023-04-06T16:00:08;12.70;56.20
17697;DHT22;8967;47.984;7.842;2023-04-06T16:02:39;12.70;56.10
17697;DHT22;8967;47.984;7.842;2023-04-06T16:05:06;12.60;56.20
17697;DHT22;8967;47.984;7.842;2023-04-06T16:07:33;12.60;56.60
17697;DHT22;8967;47.984;7.842;2023-04-06T16:10:01;12.50;56.90
17697;DHT22;8967;47.984;7.842;2023-04-06T16:12:29;12.50;57.10
17697;DHT22;8967;47.984;7.842;2023-04-06T16:14:57;12.40;57.20
17697;DHT22;8967;47.984;7.842;2023-04-06T16:17:24;12.40;57.40